Homeworth, Ohio
Current Conditions -  °F | °C
As of 1:51 PM on Wednesday 26 Nov 2014 (Local Time) from KCAK Reporting Station
Broken Clouds Broken Clouds  
Wind Chill:   Ceiling: 3400
Heat Index:   Visibility: 10mi
Dew Point: -3°   Wind: 3mph
Humidity: 62%   Direction: 350°N
Pressure: 30.02"   Gusts: NA
Location:  40.84°N, 81.07°W
Report Text: KCAK 261851Z 35003KT 10SM BKN034 BKN150 03/M03 A3002 RMK AO2 SLP178 T00331033
Loading
Personal Weather Stations






























Interactive Weather Map New forecast layout! Learn more

10-Day Weather Forecast

Advertisements
Track Severe Weather on mobile